Time;durP1;ratioP1;P1;durP2;ratioP2;P2;SDS_P1;SDS_P2;PMS_P1;PMS_P2;Temp;Humidity;BMP_temperature;BMP_pressure;BME280_temperature;BME280_humidity;BME280_pressure;Samples;Min_cycle;Max_cycle;Signal;HPM_P1;HPM_P2
2023/03/27 00:01:11;;;;;;;;;;;;;;;-142.75;100.00;78098.13;5052175;28;19912;-67
2023/03/27 00:03:37;;;;;;;;;;;;;;;-142.75;100.00;78096.16;5052282;28;19983;-67
2023/03/27 00:06:07;;;;;;;;;;;;;;;-142.75;100.00;78100.09;5051858;28;19921;-67
2023/03/27 00:08:33;;;;;;;;;;;;;;;-142.75;100.00;78102.06;5051977;28;20277;-67
2023/03/27 00:10:59;;;;;;;;;;;;;;;-142.75;100.00;78102.06;5051843;28;19924;-67
2023/03/27 00:13:25;;;;;;;;;;;;;;;-142.75;100.00;78102.06;5052227;28;19913;-67
2023/03/27 00:15:52;;;;;;;;;;;;;;;-142.75;100.00;78109.94;5051765;28;20011;-67
2023/03/27 00:18:17;;;;;;;;;;;;;;;-142.75;100.00;78098.13;5051911;28;19913;-67
2023/03/27 00:20:43;;;;;;;;;;;;;;;-142.75;100.00;78106.00;5034199;28;20380;-67
2023/03/27 00:23:08;;;;;;;;;;;;;;;-142.75;100.00;78125.69;5051920;28;20376;-67
2023/03/27 00:25:34;;;;;;;;;;;;;;;-142.75;100.00;78119.78;5051782;28;19927;-67
2023/03/27 00:28:01;;;;;;;;;;;;;;;-142.75;100.00;78113.88;5051938;28;20361;-67
2023/03/27 00:30:27;;;;;;;;;;;;;;;-142.75;100.00;78131.59;5051957;28;19916;-67
2023/03/27 00:32:54;;;;;;;;;;;;;;;-142.75;100.00;78161.13;5051699;28;20302;-67
2023/03/27 00:35:19;;;;;;;;;;;;;;;-142.75;100.00;78170.97;5051832;28;19916;-67
2023/03/27 00:37:45;;;;;;;;;;;;;;;-142.75;100.00;78182.81;5051846;28;20361;-67
2023/03/27 00:40:19;;;;;;;;;;;;;;;-142.75;100.00;78182.81;5051722;28;20012;-66
2023/03/27 00:42:45;;;;;;;;;;;;;;;-142.75;100.00;78186.75;5051777;28;19913;-67
2023/03/27 00:45:21;;;;;;;;;;;;;;;-142.75;100.00;78178.84;5051610;28;20440;-67
2023/03/27 00:47:49;;;;;;;;;;;;;;;-142.75;100.00;78188.72;5051660;28;19923;-67
2023/03/27 00:50:17;;;;;;;;;;;;;;;-142.75;100.00;78190.69;5034709;23;19932;-67
2023/03/27 00:52:46;;;;;;;;;;;;;;;-142.75;100.00;78188.72;5011161;28;19921;-63
2023/03/27 00:55:13;;;;;;;;;;;;;;;-142.75;100.00;78180.81;5010704;28;20453;-66
2023/03/27 00:57:40;;;;;;;;;;;;;;;-142.75;100.00;78204.47;5012094;28;19913;-66
2023/03/27 01:00:12;;;;;;;;;;;;;;;-142.75;100.00;78210.38;5011976;28;19967;-67
2023/03/27 01:02:39;;;;;;;;;;;;;;;-142.75;100.00;78208.41;5011959;28;20016;-66
2023/03/27 01:05:05;;;;;;;;;;;;;;;-142.75;100.00;78228.09;5011758;28;19972;-66
2023/03/27 01:07:30;;;;;;;;;;;;;;;-142.75;100.00;78235.97;5009678;28;20341;-66
2023/03/27 01:09:55;;;;;;;;;;;;;;;-142.75;100.00;78267.47;5010626;28;19914;-66
2023/03/27 01:12:35;;;;;;;;;;;;;;;-142.75;100.00;78285.19;5013799;28;20366;-65
2023/03/27 01:15:06;;;;;;;;;;;;;;;-142.75;100.00;78271.41;5015304;28;20000;-66
2023/03/27 01:17:50;;;;;;;;;;;;;;;-142.75;100.00;78279.28;5015612;28;19925;-66
2023/03/27 01:20:15;;;;;;;;;;;;;;;-142.75;100.00;78279.28;5015064;28;19917;-66
2023/03/27 01:22:59;;;;;;;;;;;;;;;-142.75;100.00;78277.31;5015120;28;19913;-67
2023/03/27 01:26:03;;;;;;;;;;;;;;;-142.75;100.00;78261.56;5013986;28;20369;-66
2023/03/27 01:28:35;;;;;;;;;;;;;;;-142.75;100.00;78234.00;4973898;28;19915;-66
2023/03/27 01:31:03;;;;;;;;;;;;;;;-142.75;100.00;78237.94;4974046;28;20294;-66
2023/03/27 01:33:35;;;;;;;;;;;;;;;-142.75;100.00;78241.88;4995652;28;19914;-66
2023/03/27 01:36:19;;;;;;;;;;;;;;;-142.75;100.00;78253.69;5015216;28;20356;-66
2023/03/27 01:39:04;;;;;;;;;;;;;;;-142.75;100.00;78255.66;5013840;28;19920;-66
2023/03/27 01:41:48;;;;;;;;;;;;;;;-142.75;100.00;78255.66;5019388;28;19976;-66
2023/03/27 01:44:22;;;;;;;;;;;;;;;-142.75;100.00;78263.53;5033487;28;19925;-66
2023/03/27 01:46:51;;;;;;;;;;;;;;;-142.75;100.00;78259.59;5034748;28;19917;-66
2023/03/27 01:49:22;;;;;;;;;;;;;;;-142.75;100.00;78251.72;5033284;28;20412;-66
2023/03/27 01:51:50;;;;;;;;;;;;;;;-142.75;100.00;78245.81;5034706;28;19913;-66
2023/03/27 01:54:18;;;;;;;;;;;;;;;-142.75;100.00;78243.84;5034609;28;19913;-66
2023/03/27 01:56:50;;;;;;;;;;;;;;;-142.75;100.00;78259.59;5033541;28;20311;-64
2023/03/27 01:59:16;;;;;;;;;;;;;;;-142.75;100.00;78247.78;5034534;28;19920;-66
2023/03/27 02:01:44;;;;;;;;;;;;;;;-142.75;100.00;78237.94;5033277;28;19913;-66
2023/03/27 02:04:13;;;;;;;;;;;;;;;-142.75;100.00;78228.09;5034469;28;19920;-66
2023/03/27 02:06:42;;;;;;;;;;;;;;;-142.75;100.00;78228.09;5034500;28;19917;-66
2023/03/27 02:09:19;;;;;;;;;;;;;;;-142.75;100.00;78212.34;5034448;28;20396;-67
2023/03/27 02:12:03;;;;;;;;;;;;;;;-142.75;100.00;78237.94;5034284;28;19917;-66
2023/03/27 02:14:31;;;;;;;;;;;;;;;-142.75;100.00;78226.13;5034206;28;20315;-67
2023/03/27 02:16:58;;;;;;;;;;;;;;;-142.75;100.00;78210.38;5033107;28;19920;-66
2023/03/27 02:19:47;;;;;;;;;;;;;;;-142.75;100.00;78210.38;5032989;28;19960;-66
2023/03/27 02:22:13;;;;;;;;;;;;;;;-142.75;100.00;78214.31;5025057;28;19924;-65
2023/03/27 02:24:39;;;;;;;;;;;;;;;-142.75;100.00;78218.25;5032731;28;20295;-66
2023/03/27 02:27:11;;;;;;;;;;;;;;;-142.75;100.00;78243.84;5034132;28;19956;-66
2023/03/27 02:29:46;;;;;;;;;;;;;;;-142.75;100.00;78228.09;5034160;28;19940;-67
2023/03/27 02:32:27;;;;;;;;;;;;;;;-142.75;100.00;78243.84;5032724;28;19963;-66
2023/03/27 02:34:52;;;;;;;;;;;;;;;-142.75;100.00;78255.66;5033848;28;19920;-66
2023/03/27 02:37:31;;;;;;;;;;;;;;;-142.75;100.00;78295.06;5033977;28;19913;-67
2023/03/27 02:39:59;;;;;;;;;;;;;;;-142.75;100.00;78302.94;5033863;28;19913;-66
2023/03/27 02:42:39;;;;;;;;;;;;;;;-142.75;100.00;78293.06;5033692;28;20396;-66
2023/03/27 02:45:14;;;;;;;;;;;;;;;-142.75;100.00;78304.91;5033599;28;19924;-66
2023/03/27 02:47:41;;;;;;;;;;;;;;;-142.75;100.00;78297.00;5032516;28;20012;-66
2023/03/27 02:50:27;;;;;;;;;;;;;;;-142.75;100.00;78300.97;5032180;28;19924;-66
2023/03/27 02:52:56;;;;;;;;;;;;;;;-142.75;100.00;78304.91;5033047;28;19936;-66
2023/03/27 02:55:32;;;;;;;;;;;;;;;-142.75;100.00;78320.66;5033460;28;19919;-66
2023/03/27 02:58:04;;;;;;;;;;;;;;;-142.75;100.00;78308.84;5033616;28;19913;-66
2023/03/27 03:00:32;;;;;;;;;;;;;;;-142.75;100.00;78318.69;5033459;28;19914;-66
2023/03/27 03:03:04;;;;;;;;;;;;;;;-142.75;100.00;78310.81;5033342;28;19916;-66
2023/03/27 03:05:30;;;;;;;;;;;;;;;-142.75;100.00;78322.63;5033241;28;20403;-66
2023/03/27 03:07:56;;;;;;;;;;;;;;;-142.75;100.00;78332.47;5033134;28;20003;-67
2023/03/27 03:10:23;;;;;;;;;;;;;;;-142.75;100.00;78334.44;5033280;28;19913;-66
2023/03/27 03:12:48;;;;;;;;;;;;;;;-142.75;100.00;78338.38;5033260;28;20404;-66
2023/03/27 03:15:14;;;;;;;;;;;;;;;-142.75;100.00;78373.81;5033142;28;19963;-66
2023/03/27 03:17:39;;;;;;;;;;;;;;;-142.75;100.00;78381.69;5031797;28;20389;-66
2023/03/27 03:20:06;;;;;;;;;;;;;;;-142.75;100.00;78385.63;5033066;28;19913;-66
2023/03/27 03:22:31;;;;;;;;;;;;;;;-142.75;100.00;78377.75;5032450;28;19913;-66
2023/03/27 03:24:56;;;;;;;;;;;;;;;-142.75;100.00;78401.38;5032755;28;19917;-66
2023/03/27 03:27:22;;;;;;;;;;;;;;;-142.75;100.00;78403.38;5031708;28;19983;-66
2023/03/27 03:29:48;;;;;;;;;;;;;;;-142.75;100.00;78407.31;5031672;28;19917;-66
2023/03/27 03:32:13;;;;;;;;;;;;;;;-142.75;100.00;78428.97;5032637;28;19917;-66
2023/03/27 03:34:40;;;;;;;;;;;;;;;-142.75;100.00;78446.69;5032295;28;19913;-66
2023/03/27 03:37:09;;;;;;;;;;;;;;;-142.75;100.00;78476.22;5032713;28;20350;-66
2023/03/27 03:39:34;;;;;;;;;;;;;;;-142.75;100.00;78470.31;5032731;28;19967;-66
2023/03/27 03:41:59;;;;;;;;;;;;;;;-142.75;100.00;78476.22;5032680;28;19956;-66
2023/03/27 03:44:25;;;;;;;;;;;;;;;-142.75;100.00;78491.97;5032493;28;19913;-66
2023/03/27 03:46:50;;;;;;;;;;;;;;;-142.75;100.00;78478.19;5032662;28;19939;-66
2023/03/27 03:49:15;;;;;;;;;;;;;;;-142.75;100.00;78476.22;5032341;28;20373;-66
2023/03/27 03:51:40;;;;;;;;;;;;;;;-142.75;100.00;78499.88;5032410;28;19920;-66
2023/03/27 03:54:07;;;;;;;;;;;;;;;-142.75;100.00;78511.69;5031002;28;19913;-66
2023/03/27 03:56:33;;;;;;;;;;;;;;;-142.75;100.00;78505.78;5032596;28;19924;-66
2023/03/27 03:58:58;;;;;;;;;;;;;;;-142.75;100.00;78486.06;5032386;28;19913;-66
2023/03/27 04:01:24;;;;;;;;;;;;;;;-142.75;100.00;78460.47;5032312;28;19913;-65
2023/03/27 04:03:50;;;;;;;;;;;;;;;-142.75;100.00;78450.63;5032289;28;19920;-66
2023/03/27 04:06:19;;;;;;;;;;;;;;;-142.75;100.00;78440.78;5032287;28;20299;-66
2023/03/27 04:08:44;;;;;;;;;;;;;;;-142.75;100.00;78440.78;5032229;28;19959;-67
2023/03/27 04:11:10;;;;;;;;;;;;;;;-142.75;100.00;78444.72;5032014;28;20156;-66
2023/03/27 04:13:35;;;;;;;;;;;;;;;-142.75;100.00;78450.63;5032336;28;19913;-66
2023/03/27 04:16:00;;;;;;;;;;;;;;;-142.75;100.00;78448.66;5032142;28;19920;-66
2023/03/27 04:18:31;;;;;;;;;;;;;;;-142.75;100.00;78446.69;5032196;28;19987;-66
2023/03/27 04:20:57;;;;;;;;;;;;;;;-142.75;100.00;78460.47;5031993;28;19913;-66
2023/03/27 04:23:29;;;;;;;;;;;;;;;-142.75;100.00;78468.34;5032217;28;19920;-66
2023/03/27 04:26:02;;;;;;;;;;;;;;;-142.75;100.00;78484.09;5031950;28;19924;-66
2023/03/27 04:28:29;;;;;;;;;;;;;;;-142.75;100.00;78480.16;5030765;28;19913;-64
2023/03/27 04:30:54;;;;;;;;;;;;;;;-142.75;100.00;78482.13;5031923;28;19920;-66
2023/03/27 04:33:21;;;;;;;;;;;;;;;-142.75;100.00;78474.25;5032055;28;19913;-65
2023/03/27 04:35:49;;;;;;;;;;;;;;;-142.75;100.00;78482.13;5031896;28;19913;-66
2023/03/27 04:38:14;;;;;;;;;;;;;;;-142.75;100.00;78488.03;5031883;28;20328;-65
2023/03/27 04:40:44;;;;;;;;;;;;;;;-142.75;100.00;78484.09;5031996;28;19913;-66
2023/03/27 04:43:10;;;;;;;;;;;;;;;-142.75;100.00;78490.00;5030666;28;19952;-66
2023/03/27 04:45:35;;;;;;;;;;;;;;;-142.75;100.00;78521.53;5035137;28;19982;-66
2023/03/27 04:48:01;;;;;;;;;;;;;;;-142.75;100.00;78511.69;5034601;28;19913;-66
2023/03/27 04:50:26;;;;;;;;;;;;;;;-142.75;100.00;78505.78;5035694;28;20412;-66
2023/03/27 04:52:57;;;;;;;;;;;;;;;-142.75;100.00;78501.84;5035738;28;19920;-66
2023/03/27 04:55:24;;;;;;;;;;;;;;;-142.75;100.00;78570.75;5035810;28;20304;-64
2023/03/27 04:57:49;;;;;;;;;;;;;;;-142.75;100.00;78566.81;5035780;28;20003;-66
2023/03/27 05:00:17;;;;;;;;;;;;;;;-142.75;100.00;78551.06;5035699;28;20011;-65
2023/03/27 05:02:43;;;;;;;;;;;;;;;-142.75;100.00;78547.13;5035640;28;20462;-64
2023/03/27 05:05:09;;;;;;;;;;;;;;;-142.75;100.00;78558.94;5035442;28;19960;-66
2023/03/27 05:07:34;;;;;;;;;;;;;;;-142.75;100.00;78588.50;5035551;28;19917;-66
2023/03/27 05:10:01;;;;;;;;;;;;;;;-142.75;100.00;78600.31;5035571;28;19917;-66
2023/03/27 05:12:26;;;;;;;;;;;;;;;-142.75;100.00;78598.34;5035535;28;19916;-66
2023/03/27 05:14:52;;;;;;;;;;;;;;;-142.75;100.00;78610.16;5035257;28;20363;-66
2023/03/27 05:17:17;;;;;;;;;;;;;;;-142.75;100.00;78594.41;5035418;28;19913;-66
2023/03/27 05:19:44;;;;;;;;;;;;;;;-142.75;100.00;78588.50;5035336;28;19923;-67
2023/03/27 05:22:09;;;;;;;;;;;;;;;-142.75;100.00;78584.56;5035169;28;19913;-65
2023/03/27 05:24:34;;;;;;;;;;;;;;;-142.75;100.00;78588.50;5035086;28;19967;-66
2023/03/27 05:26:59;;;;;;;;;;;;;;;-142.75;100.00;78598.34;5033987;28;19920;-66
2023/03/27 05:29:25;;;;;;;;;;;;;;;-142.75;100.00;78590.47;5035168;28;19913;-66
2023/03/27 05:31:51;;;;;;;;;;;;;;;-142.75;100.00;78568.78;5035115;28;19917;-66
2023/03/27 05:34:18;;;;;;;;;;;;;;;-142.75;100.00;78566.81;5034984;28;19913;-66
2023/03/27 05:36:44;;;;;;;;;;;;;;;-142.75;100.00;78574.69;5035144;28;20010;-65
2023/03/27 05:39:09;;;;;;;;;;;;;;;-142.75;100.00;78582.59;5035032;28;20291;-65
2023/03/27 05:41:34;;;;;;;;;;;;;;;-142.75;100.00;78578.63;5034809;28;20005;-66
2023/03/27 05:44:00;;;;;;;;;;;;;;;-142.75;100.00;78592.44;5034908;28;19929;-66
2023/03/27 05:46:25;;;;;;;;;;;;;;;-142.75;100.00;78578.63;5035024;28;19921;-66
2023/03/27 05:48:51;;;;;;;;;;;;;;;-142.75;100.00;78604.25;5034713;28;19917;-67
2023/03/27 05:51:16;;;;;;;;;;;;;;;-142.75;100.00;78616.06;5034762;28;19917;-66
2023/03/27 05:53:42;;;;;;;;;;;;;;;-142.75;100.00;78606.22;5034832;28;20372;-65
2023/03/27 05:56:08;;;;;;;;;;;;;;;-142.75;100.00;78582.59;5032897;28;19913;-66
2023/03/27 05:58:33;;;;;;;;;;;;;;;-142.75;100.00;78578.63;5034639;28;19917;-66
2023/03/27 06:00:59;;;;;;;;;;;;;;;-142.75;100.00;78568.78;5034495;28;20342;-66
2023/03/27 06:03:29;;;;;;;;;;;;;;;-142.75;100.00;78558.94;5034701;28;19913;-66
2023/03/27 06:05:54;;;;;;;;;;;;;;;-142.75;100.00;78562.88;5034348;28;20377;-66
2023/03/27 06:08:19;;;;;;;;;;;;;;;-142.75;100.00;78562.88;5034444;28;19944;-66
2023/03/27 06:10:45;;;;;;;;;;;;;;;-142.75;100.00;78551.06;5031430;28;20016;-66
2023/03/27 06:13:11;;;;;;;;;;;;;;;-142.75;100.00;78541.22;5014621;28;19913;-66
2023/03/27 06:15:38;;;;;;;;;;;;;;;-142.75;100.00;78519.56;5014448;28;19914;-66
2023/03/27 06:18:03;;;;;;;;;;;;;;;-142.75;100.00;78525.47;5013292;28;19918;-66
2023/03/27 06:20:29;;;;;;;;;;;;;;;-142.75;100.00;78525.47;5014548;28;20388;-66
2023/03/27 06:22:55;;;;;;;;;;;;;;;-142.75;100.00;78523.50;5014379;28;19920;-66
2023/03/27 06:25:21;;;;;;;;;;;;;;;-142.75;100.00;78507.75;5014148;28;19918;-66
2023/03/27 06:27:47;;;;;;;;;;;;;;;-142.75;100.00;78488.03;5014388;28;19948;-67
2023/03/27 06:30:13;;;;;;;;;;;;;;;-142.75;100.00;78495.94;5013071;28;19968;-66
2023/03/27 06:32:43;;;;;;;;;;;;;;;-142.75;100.00;78488.03;5014379;28;19949;-66
2023/03/27 06:35:08;;;;;;;;;;;;;;;-142.75;100.00;78511.69;5012813;28;19913;-66
2023/03/27 06:37:35;;;;;;;;;;;;;;;-142.75;100.00;78484.09;5012884;28;19914;-66
2023/03/27 06:40:02;;;;;;;;;;;;;;;-142.75;100.00;78478.19;5014522;28;20388;-65
2023/03/27 06:42:28;;;;;;;;;;;;;;;-142.75;100.00;78482.13;5013994;28;19952;-66
2023/03/27 06:44:53;;;;;;;;;;;;;;;-142.75;100.00;78464.41;5014021;28;19969;-66
2023/03/27 06:47:18;;;;;;;;;;;;;;;-142.75;100.00;78432.91;5014259;28;20025;-66
2023/03/27 06:49:46;;;;;;;;;;;;;;;-142.75;100.00;78415.19;5014508;28;19972;-66
2023/03/27 06:52:12;;;;;;;;;;;;;;;-142.75;100.00;78397.44;5013830;28;19967;-64
2023/03/27 06:54:37;;;;;;;;;;;;;;;-142.75;100.00;78409.28;5013769;28;19918;-66
2023/03/27 06:57:02;;;;;;;;;;;;;;;-142.75;100.00;78409.28;5013736;28;19925;-66
2023/03/27 06:59:27;;;;;;;;;;;;;;;-142.75;100.00;78403.38;5012273;28;19914;-66
2023/03/27 07:01:53;;;;;;;;;;;;;;;-142.75;100.00;78397.44;5013594;28;19913;-66
2023/03/27 07:04:18;;;;;;;;;;;;;;;-142.75;100.00;78379.72;5013488;28;19913;-66
2023/03/27 07:06:47;;;;;;;;;;;;;;;-142.75;100.00;78346.25;5013795;28;19917;-67
2023/03/27 07:09:13;;;;;;;;;;;;;;;-142.75;100.00;78326.56;5012645;28;19925;-66
2023/03/27 07:11:38;;;;;;;;;;;;;;;-142.75;100.00;78428.97;5011983;28;19914;-64
2023/03/27 07:14:03;;;;;;;;;;;;;;;-142.75;100.00;78436.84;5013330;28;19913;-65
2023/03/27 07:16:30;;;;;;;;;;;;;;;-142.75;100.00;78430.94;5013869;28;19957;-66
2023/03/27 07:18:56;;;;;;;;;;;;;;;-142.75;100.00;78405.34;5013026;28;19918;-66
2023/03/27 07:21:21;;;;;;;;;;;;;;;-142.75;100.00;78354.13;5013248;28;19920;-66
2023/03/27 07:23:46;;;;;;;;;;;;;;;-142.75;100.00;78367.91;5013059;28;19999;-66
2023/03/27 07:26:12;;;;;;;;;;;;;;;-142.75;100.00;78354.13;5013251;28;19921;-67
2023/03/27 07:28:37;;;;;;;;;;;;;;;-142.75;100.00;78393.50;5013185;28;19920;-66
2023/03/27 07:31:12;;;;;;;;;;;;;;;-142.75;100.00;78478.19;5011814;28;19965;-66
2023/03/27 07:33:38;;;;;;;;;;;;;;;-142.75;100.00;78511.69;5011746;28;20389;-66
2023/03/27 07:36:08;;;;;;;;;;;;;;;-142.75;100.00;78505.78;5011739;28;20344;-66
2023/03/27 07:38:33;;;;;;;;;;;;;;;-142.75;100.00;78501.84;5013045;28;20004;-66
2023/03/27 07:41:05;;;;;;;;;;;;;;;-142.75;100.00;78523.50;5013000;28;19961;-66
2023/03/27 07:43:30;;;;;;;;;;;;;;;-142.75;100.00;78531.38;5013102;28;19913;-66
2023/03/27 07:45:56;;;;;;;;;;;;;;;-142.75;100.00;78527.44;5012834;28;20403;-66
2023/03/27 07:48:21;;;;;;;;;;;;;;;-142.75;100.00;78533.34;5012612;28;19914;-66
2023/03/27 07:50:47;;;;;;;;;;;;;;;-142.75;100.00;78529.41;5011429;28;20342;-66
2023/03/27 07:53:12;;;;;;;;;;;;;;;-142.75;100.00;78523.50;5012862;28;19917;-66
2023/03/27 07:55:39;;;;;;;;;;;;;;;-142.75;100.00;78509.72;5012743;28;19920;-65
2023/03/27 07:58:05;;;;;;;;;;;;;;;-142.75;100.00;78468.34;5011191;28;19921;-67
2023/03/27 08:00:31;;;;;;;;;;;;;;;-142.75;100.00;78460.47;5011548;28;19913;-66
2023/03/27 08:03:07;;;;;;;;;;;;;;;-142.75;100.00;78405.34;5011376;28;19936;-66
2023/03/27 08:05:32;;;;;;;;;;;;;;;-142.75;100.00;78389.56;5011109;28;19918;-66
2023/03/27 08:07:58;;;;;;;;;;;;;;;-142.75;100.00;78358.06;5012654;28;19913;-66
2023/03/27 08:10:23;;;;;;;;;;;;;;;-142.75;100.00;78362.00;5012702;28;19921;-66
2023/03/27 08:12:49;;;;;;;;;;;;;;;-142.75;100.00;78310.81;5011376;28;20384;-66
2023/03/27 08:15:14;;;;;;;;;;;;;;;-142.75;100.00;78291.09;5012454;28;20012;-66
2023/03/27 08:17:39;;;;;;;;;;;;;;;-142.75;100.00;78228.09;5011667;28;19949;-66
2023/03/27 08:20:08;;;;;;;;;;;;;;;-142.75;100.00;78237.94;5012287;28;19913;-65
2023/03/27 08:22:35;;;;;;;;;;;;;;;-142.75;100.00;78214.31;5012243;28;19956;-66
2023/03/27 08:25:00;;;;;;;;;;;;;;;-142.75;100.00;78253.69;5011703;28;19918;-65
2023/03/27 08:27:26;;;;;;;;;;;;;;;-142.75;100.00;78273.38;5011737;28;19926;-66
2023/03/27 08:29:52;;;;;;;;;;;;;;;-142.75;100.00;78283.22;5011817;28;20008;-65
2023/03/27 08:32:17;;;;;;;;;;;;;;;-142.75;100.00;78302.94;5009966;28;19920;-66
2023/03/27 08:34:42;;;;;;;;;;;;;;;-142.75;100.00;78334.44;5011776;28;19933;-66
2023/03/27 08:37:07;;;;;;;;;;;;;;;-142.75;100.00;78397.44;5011835;28;20373;-66
2023/03/27 08:39:33;;;;;;;;;;;;;;;-142.75;100.00;78397.44;5016890;28;20381;-66
2023/03/27 08:41:59;;;;;;;;;;;;;;;-142.75;100.00;78395.47;5011935;28;20400;-66
2023/03/27 08:44:25;;;;;;;;;;;;;;;-142.75;100.00;78428.97;5010651;28;19913;-66
2023/03/27 08:46:59;;;;;;;;;;;;;;;-142.75;100.00;78430.94;5007510;28;19928;-67
2023/03/27 08:49:36;;;;;;;;;;;;;;;-142.75;100.00;78407.31;5007649;28;20544;-67
2023/03/27 08:52:09;;;;;;;;;;;;;;;-142.75;100.00;78302.94;5009959;28;19913;-66
2023/03/27 08:54:35;;;;;;;;;;;;;;;-142.75;100.00;78241.88;5006881;28;19922;-66
2023/03/27 08:57:02;;;;;;;;;;;;;;;-142.75;100.00;78188.72;5008034;28;19920;-66
2023/03/27 08:59:29;;;;;;;;;;;;;;;-142.75;100.00;78135.53;5011895;28;19972;-67
2023/03/27 09:02:02;;;;;;;;;;;;;;;-142.75;99.24;78100.09;5010176;28;19913;-66
2023/03/27 09:04:27;;;;;;;;;;;;;;;-142.75;97.65;78094.19;5007057;28;19924;-67
2023/03/27 09:07:11;;;;;;;;;;;;;;;-142.75;98.44;78109.94;5000713;28;19922;-64
2023/03/27 09:09:45;;;;;;;;;;;;;;;-142.75;99.35;78155.22;5006742;28;19937;-66
2023/03/27 09:12:19;;;;;;;;;;;;;;;-142.75;95.52;78127.66;5006663;28;19914;-66
2023/03/27 09:14:53;;;;;;;;;;;;;;;-142.75;92.14;78074.50;4999203;28;20392;-66
2023/03/27 09:17:18;;;;;;;;;;;;;;;-142.75;91.44;78062.69;5011782;28;20404;-68
2023/03/27 09:19:51;;;;;;;;;;;;;;;-142.75;87.18;78058.72;5011581;28;19914;-66
2023/03/27 09:22:20;;;;;;;;;;;;;;;-142.75;85.63;78021.31;5005213;28;19917;-67
2023/03/27 09:24:47;;;;;;;;;;;;;;;-142.75;85.99;78009.50;5010274;28;19914;-67
2023/03/27 09:27:28;;;;;;;;;;;;;;;-142.75;90.67;78015.41;5010208;28;19917;-67
2023/03/27 09:30:09;;;;;;;;;;;;;;;-142.75;95.62;78141.44;5010324;28;19917;-66
2023/03/27 09:32:36;;;;;;;;;;;;;;;-142.75;100.00;78306.88;5012612;28;20328;-66
2023/03/27 09:35:02;;;;;;;;;;;;;;;-142.75;100.00;78415.19;5013177;28;20329;-66
2023/03/27 09:37:28;;;;;;;;;;;;;;;-142.75;100.00;78491.97;5014563;28;19920;-66
2023/03/27 09:39:53;;;;;;;;;;;;;;;-142.75;100.00;78478.19;5014849;28;19914;-66
2023/03/27 09:42:25;;;;;;;;;;;;;;;-142.75;100.00;78403.38;5013214;28;19918;-64
2023/03/27 09:44:59;;;;;;;;;;;;;;;-142.75;100.00;78297.00;5014907;28;19913;-66
2023/03/27 09:47:29;;;;;;;;;;;;;;;-142.75;100.00;78269.44;5015135;28;20007;-68
2023/03/27 09:50:00;;;;;;;;;;;;;;;-142.75;100.00;78200.53;5013168;28;19924;-69
2023/03/27 09:52:38;;;;;;;;;;;;;;;-142.75;100.00;78194.63;5013906;28;19925;-66
2023/03/27 09:55:21;;;;;;;;;;;;;;;-142.75;100.00;78159.16;5013533;28;19935;-66
2023/03/27 09:57:47;;;;;;;;;;;;;;;-142.75;99.85;78088.28;5014879;28;19913;-66
2023/03/27 10:00:26;;;;;;;;;;;;;;;-142.75;98.62;78039.03;5014937;28;20289;-67
2023/03/27 10:03:02;;;;;;;;;;;;;;;-142.75;92.22;78001.63;5014850;28;19913;-67
2023/03/27 10:05:29;;;;;;;;;;;;;;;-142.75;86.83;77999.66;5014681;28;19917;-67
2023/03/27 10:07:54;;;;;;;;;;;;;;;-142.75;84.93;78042.97;5013722;28;19921;-67
2023/03/27 10:10:19;;;;;;;;;;;;;;;-142.75;85.65;78011.47;5013432;28;19914;-67
2023/03/27 10:12:56;;;;;;;;;;;;;;;-142.75;87.13;77983.91;5014749;28;20012;-63
2023/03/27 10:15:27;;;;;;;;;;;;;;;-142.75;86.73;77944.53;5013326;28;19917;-67
2023/03/27 10:17:52;;;;;;;;;;;;;;;-142.75;84.72;77952.41;5014610;28;19945;-66
2023/03/27 10:20:19;;;;;;;;;;;;;;;-142.75;87.55;77964.22;5014385;28;19913;-67
2023/03/27 10:23:21;;;;;;;;;;;;;;;-142.75;89.99;78054.81;5013804;28;19913;-68
2023/03/27 10:25:51;;;;;;;;;;;;;;;-142.75;94.39;78096.16;4937023;29;20053;-67
2023/03/27 10:28:18;;;;;;;;;;;;;;;-142.75;97.83;78042.97;5003392;28;20420;-65
2023/03/27 10:30:43;;;;;;;;;;;;;;;-142.75;89.72;77991.78;5013768;28;19928;-67
2023/03/27 10:33:09;;;;;;;;;;;;;;;-142.75;84.95;78025.25;5013899;28;19913;-67
2023/03/27 10:35:36;;;;;;;;;;;;;;;-142.75;85.59;77924.84;5013751;28;19913;-66
2023/03/27 10:38:05;;;;;;;;;;;;;;;-142.75;83.45;77891.34;5012122;28;19913;-67
2023/03/27 10:40:32;;;;;;;;;;;;;;;-142.75;83.60;77802.75;5012319;28;19972;-67
2023/03/27 10:43:00;;;;;;;;;;;;;;;-142.75;79.82;77798.81;5013477;28;20396;-67
2023/03/27 10:45:25;;;;;;;;;;;;;;;-142.75;80.63;77991.78;5013364;28;19917;-67
2023/03/27 10:47:52;;;;;;;;;;;;;;;-142.75;80.57;77995.72;5013644;28;19913;-66
2023/03/27 10:50:19;;;;;;;;;;;;;;;-142.75;79.20;77948.47;5013473;28;19917;-65
2023/03/27 10:52:53;;;;;;;;;;;;;;;-142.75;75.94;77928.78;5012015;28;20348;-67
2023/03/27 10:55:23;;;;;;;;;;;;;;;-142.75;73.46;77924.84;5011367;28;19920;-66
2023/03/27 10:57:53;;;;;;;;;;;;;;;-142.75;71.52;77893.31;5013636;28;19918;-67
2023/03/27 11:00:23;;;;;;;;;;;;;;;-142.75;69.33;77891.34;5010013;28;19921;-67
2023/03/27 11:03:05;;;;;;;;;;;;;;;-142.75;69.68;77834.25;5013366;28;19913;-67
2023/03/27 11:05:36;;;;;;;;;;;;;;;-142.75;68.41;77944.53;5012691;28;19921;-67
2023/03/27 11:08:07;;;;;;;;;;;;;;;-142.75;67.90;77932.72;5013322;28;20301;-66
2023/03/27 11:10:38;;;;;;;;;;;;;;;-142.75;68.24;77859.84;5011959;28;19970;-67
2023/03/27 11:13:08;;;;;;;;;;;;;;;-142.75;64.15;77844.09;5013249;28;19921;-67
2023/03/27 11:15:38;;;;;;;;;;;;;;;-142.75;66.09;77873.63;5012192;28;19914;-67
2023/03/27 11:18:09;;;;;;;;;;;;;;;-142.75;64.72;77899.22;5013589;28;20416;-66
2023/03/27 11:20:42;;;;;;;;;;;;;;;-142.75;65.12;77830.31;5011286;28;20368;-66
2023/03/27 11:23:34;;;;;;;;;;;;;;;-142.75;65.07;77838.19;5013875;28;19921;-67
2023/03/27 11:26:01;;;;;;;;;;;;;;;-142.75;67.90;77779.13;5006206;28;19921;-67
2023/03/27 11:28:40;;;;;;;;;;;;;;;-142.75;66.59;77796.84;5012620;28;19940;-66
2023/03/27 11:31:18;;;;;;;;;;;;;;;-142.75;67.64;77763.38;5011289;28;19918;-66
2023/03/27 11:33:43;;;;;;;;;;;;;;;-142.75;70.68;77830.31;5011897;28;19956;-66
2023/03/27 11:36:21;;;;;;;;;;;;;;;-142.75;73.70;77948.47;5013135;28;19917;-66
2023/03/27 11:39:01;;;;;;;;;;;;;;;-142.75;76.14;78058.72;5012435;28;19936;-67
2023/03/27 11:41:26;;;;;;;;;;;;;;;-142.75;77.10;77979.97;5011487;28;19917;-67
2023/03/27 11:43:52;;;;;;;;;;;;;;;-142.75;73.90;77930.75;5012882;28;20095;-65
2023/03/27 11:46:52;;;;;;;;;;;;;;;-142.75;71.89;77867.72;5012913;28;19964;-67
2023/03/27 11:49:37;;;;;;;;;;;;;;;-142.75;70.33;77867.72;4971486;28;19937;-67
2023/03/27 11:52:15;;;;;;;;;;;;;;;-142.75;67.41;77889.38;5021841;28;20288;-67
2023/03/27 11:54:40;;;;;;;;;;;;;;;-142.75;68.10;77881.50;5023097;28;19909;-66
2023/03/27 11:57:11;;;;;;;;;;;;;;;-142.75;66.45;77891.34;5012836;28;19914;-67
2023/03/27 11:59:40;;;;;;;;;;;;;;;-142.75;68.78;77873.63;5012720;28;19936;-67
2023/03/27 12:02:21;;;;;;;;;;;;;;;-142.75;69.66;77822.44;5012620;28;20389;-67
2023/03/27 12:04:56;;;;;;;;;;;;;;;-142.75;70.14;77879.53;5025504;28;19913;-66
2023/03/27 12:07:47;;;;;;;;;;;;;;;-142.75;69.10;77881.50;5032370;28;19920;-67
2023/03/27 12:10:16;;;;;;;;;;;;;;;-142.75;69.12;77850.00;5032186;28;19917;-66
2023/03/27 12:12:44;;;;;;;;;;;;;;;-142.75;69.47;77940.59;5030470;28;19972;-67
2023/03/27 12:15:28;;;;;;;;;;;;;;;-142.75;69.63;78011.47;5030696;28;19920;-66
2023/03/27 12:18:06;;;;;;;;;;;;;;;-142.75;69.63;77928.78;5032093;28;19924;-66
2023/03/27 12:20:51;;;;;;;;;;;;;;;-142.75;69.00;77930.75;5031960;28;19913;-66
2023/03/27 12:23:31;;;;;;;;;;;;;;;-142.75;70.26;77840.16;5006345;28;19913;-66
2023/03/27 12:26:09;;;;;;;;;;;;;;;-142.75;67.01;77867.72;5011954;28;19936;-67
2023/03/27 12:28:51;;;;;;;;;;;;;;;-142.75;65.34;77964.22;5032004;28;19935;-68
2023/03/27 12:31:23;;;;;;;;;;;;;;;-142.75;64.66;77956.34;5012880;28;19913;-66